Time;durP1;ratioP1;P1;durP2;ratioP2;P2;SDS_P1;SDS_P2;PMS_P1;PMS_P2;Temp;Humidity;BMP_temperature;BMP_pressure;BME280_temperature;BME280_humidity;BME280_pressure;Samples;Min_cycle;Max_cycle;Signal;HPM_P1;HPM_P2
2022/08/02 00:00:23;;;;;;;1.47;1.37;;;;;;;17.02;93.00;94264.84;5001290;28;20207;-66
2022/08/02 00:03:07;;;;;;;1.93;1.60;;;;;;;17.20;91.15;94266.53;5001774;28;20208;-70
2022/08/02 00:05:52;;;;;;;1.90;1.70;;;;;;;17.11;91.77;94267.44;4999697;28;20756;-70
2022/08/02 00:08:36;;;;;;;2.40;1.83;;;;;;;17.14;92.96;94268.28;4999208;28;20305;-70
2022/08/02 00:11:20;;;;;;;2.00;1.80;;;;;;;17.22;92.19;94263.06;5001505;28;20353;-68
2022/08/02 00:14:04;;;;;;;2.00;1.70;;;;;;;17.21;92.24;94259.50;4997781;28;20768;-65
2022/08/02 00:16:49;;;;;;;2.13;1.80;;;;;;;17.30;91.09;94263.47;5002365;28;20586;-69
2022/08/02 00:19:33;;;;;;;2.20;1.83;;;;;;;17.28;91.38;94261.25;4998142;28;20211;-69
2022/08/02 00:22:17;;;;;;;1.73;1.60;;;;;;;17.20;92.00;94260.84;4999816;28;20718;-70
2022/08/02 00:25:01;;;;;;;2.10;1.90;;;;;;;17.17;93.68;94259.28;4998955;28;20208;-70
2022/08/02 00:27:45;;;;;;;3.20;1.90;;;;;;;17.17;93.78;94259.28;4996623;28;20243;-70
2022/08/02 00:30:29;;;;;;;2.13;1.60;;;;;;;17.18;93.31;94260.75;4998084;28;20207;-70
2022/08/02 00:33:13;;;;;;;1.87;1.77;;;;;;;17.20;93.96;94260.84;4996869;28;20199;-69
2022/08/02 00:35:58;;;;;;;2.03;1.83;;;;;;;17.14;94.21;94254.88;5001182;28;20207;-69
2022/08/02 00:38:43;;;;;;;2.40;1.87;;;;;;;17.12;93.43;94254.03;5000170;28;20196;-69
2022/08/02 00:41:27;;;;;;;2.33;1.70;;;;;;;17.09;93.71;94252.47;5000059;28;20652;-69
2022/08/02 00:44:11;;;;;;;3.20;1.83;;;;;;;17.16;92.88;94243.63;4999031;28;20204;-70
2022/08/02 00:46:55;;;;;;;3.10;1.93;;;;;;;17.03;92.99;94250.06;5001395;28;20195;-69
2022/08/02 00:49:39;;;;;;;2.07;1.40;;;;;;;17.06;92.53;94250.88;5002539;28;20221;-69
2022/08/02 00:52:24;;;;;;;1.40;1.30;;;;;;;17.12;91.17;94242.69;4997759;28;20205;-67
2022/08/02 00:55:08;;;;;;;2.10;1.60;;;;;;;17.23;89.58;94239.03;5001722;28;20284;-70
2022/08/02 00:57:53;;;;;;;1.90;1.70;;;;;;;17.16;89.10;94240.81;4998042;28;20200;-70
2022/08/02 01:00:37;;;;;;;1.77;1.53;;;;;;;17.19;88.91;94238.81;4999451;28;20280;-69
2022/08/02 01:03:22;;;;;;;2.17;1.70;;;;;;;17.41;88.29;94239.97;4999928;28;21283;-70
2022/08/02 01:06:06;;;;;;;1.57;1.47;;;;;;;17.49;87.16;94254.53;4997598;28;20196;-70
2022/08/02 01:08:50;;;;;;;4.03;1.87;;;;;;;17.33;88.67;94242.41;4987959;28;20306;-70
2022/08/02 01:11:35;;;;;;;2.77;2.17;;;;;;;17.43;89.19;94250.66;4997786;28;20271;-70
2022/08/02 01:14:21;;;;;;;1.80;1.50;;;;;;;17.47;88.11;94242.38;5011673;28;20199;-70
2022/08/02 01:17:07;;;;;;;5.60;1.87;;;;;;;17.42;88.97;94243.53;4997466;28;20212;-70
2022/08/02 01:20:10;;;;;;;2.27;2.07;;;;;;;17.05;91.19;94241.66;4999569;28;20203;-70
2022/08/02 01:23:00;;;;;;;2.50;2.17;;;;;;;16.96;92.70;94242.59;5000969;28;20215;-69
2022/08/02 01:26:33;;;;;;;2.47;2.10;;;;;;;17.00;93.31;94239.97;4998288;28;20246;-70
2022/08/02 01:29:24;;;;;;;2.77;2.00;;;;;;;16.99;93.42;94232.84;4995293;28;20216;-70
2022/08/02 01:32:16;;;;;;;3.80;2.57;;;;;;;16.91;93.79;94243.75;4996746;28;20204;-70
2022/08/02 01:35:03;;;;;;;2.93;2.63;;;;;;;16.96;93.37;94234.09;4999791;28;20326;-70
2022/08/02 01:38:13;;;;;;;6.60;2.10;;;;;;;16.85;94.73;94237.78;5000989;28;20219;-70
2022/08/02 01:41:00;;;;;;;2.60;2.17;;;;;;;16.96;93.99;94234.09;4997223;28;20261;-70
2022/08/02 01:43:46;;;;;;;3.07;2.43;;;;;;;16.95;93.08;94238.28;4998783;28;20201;-70
2022/08/02 01:46:33;;;;;;;2.53;2.33;;;;;;;17.00;92.28;94237.13;4998651;28;20195;-70
2022/08/02 01:49:21;;;;;;;7.93;2.23;;;;;;;16.95;93.02;94232.63;4998048;28;20274;-70
2022/08/02 01:52:20;;;;;;;2.23;2.03;;;;;;;16.94;92.39;94225.50;4997577;28;20234;-70
2022/08/02 01:55:07;;;;;;;6.00;2.50;;;;;;;16.79;93.25;94226.09;5000794;28;20628;-70
2022/08/02 01:57:54;;;;;;;3.23;2.07;;;;;;;16.95;93.60;94227.72;5000695;28;20253;-70
2022/08/02 02:00:39;;;;;;;3.37;2.53;;;;;;;16.91;93.49;94224.66;4997178;28;20226;-70
2022/08/02 02:03:25;;;;;;;4.87;2.40;;;;;;;16.78;93.67;94224.66;4999658;28;20214;-70
2022/08/02 02:06:11;;;;;;;3.50;2.43;;;;;;;16.47;95.85;94222.28;4997374;28;20212;-70
2022/08/02 02:08:57;;;;;;;3.53;2.43;;;;;;;16.43;97.36;94211.44;5000693;28;20219;-70
2022/08/02 02:11:47;;;;;;;2.67;2.47;;;;;;;16.57;96.72;94223.53;5001280;28;20210;-70
2022/08/02 02:14:33;;;;;;;4.70;2.67;;;;;;;16.67;96.81;94214.88;5002401;28;20192;-70
2022/08/02 02:17:20;;;;;;;5.23;2.50;;;;;;;16.65;97.50;94214.03;4999681;28;20223;-70
2022/08/02 02:20:05;;;;;;;3.27;2.40;;;;;;;16.87;95.73;94215.22;4998619;28;20203;-70
2022/08/02 02:22:50;;;;;;;2.97;2.70;;;;;;;17.01;94.61;94218.06;4999532;28;20278;-70
2022/08/02 02:25:35;;;;;;;4.27;3.07;;;;;;;17.04;94.28;94213.97;4999847;28;20543;-70
2022/08/02 02:28:23;;;;;;;4.97;2.57;;;;;;;17.01;94.27;94221.63;5001235;28;20200;-70
2022/08/02 02:31:10;;;;;;;3.10;2.37;;;;;;;17.27;92.82;94225.81;5002215;28;20212;-70
2022/08/02 02:34:00;;;;;;;4.90;3.27;;;;;;;17.26;93.01;94223.63;5003099;28;20215;-70
2022/08/02 02:36:50;;;;;;;2.57;2.37;;;;;;;17.30;92.25;94224.56;5016823;28;20208;-70
2022/08/02 02:39:36;;;;;;;2.93;2.27;;;;;;;17.37;92.58;94220.66;5000715;28;20196;-70
2022/08/02 02:42:25;;;;;;;3.63;2.10;;;;;;;17.40;92.23;94230.72;5001499;28;20200;-70
2022/08/02 02:45:09;;;;;;;8.17;2.47;;;;;;;17.61;90.46;94220.44;5004874;28;20196;-70
2022/08/02 02:47:54;;;;;;;2.80;2.60;;;;;;;17.64;90.22;94230.53;5003335;28;20215;-70
2022/08/02 02:50:41;;;;;;;5.00;2.67;;;;;;;17.52;92.88;94229.88;5001282;28;20199;-70
2022/08/02 02:53:27;;;;;;;2.90;2.47;;;;;;;17.44;92.89;94226.63;5001295;28;20628;-70
2022/08/02 02:56:12;;;;;;;2.80;2.30;;;;;;;17.55;92.88;94229.34;5005141;28;20208;-70
2022/08/02 02:58:59;;;;;;;2.87;2.50;;;;;;;17.46;93.63;94221.09;5002349;28;21191;-70
2022/08/02 03:01:43;;;;;;;2.40;2.20;;;;;;;17.56;93.32;94224.41;5001788;28;20200;-70
2022/08/02 03:04:29;;;;;;;3.20;2.50;;;;;;;17.61;93.30;94228.94;5002126;28;20238;-70
2022/08/02 03:07:13;;;;;;;2.60;2.40;;;;;;;17.51;93.50;94226.31;4999415;28;20672;-70
2022/08/02 03:09:57;;;;;;;2.17;1.90;;;;;;;17.51;91.85;94223.47;5003443;28;20231;-70
2022/08/02 03:12:42;;;;;;;2.63;1.90;;;;;;;17.59;89.65;94228.84;5002556;28;20203;-70
2022/08/02 03:15:28;;;;;;;1.83;1.50;;;;;;;17.69;87.28;94227.25;5000832;28;20203;-70
2022/08/02 03:18:36;;;;;;;1.87;1.40;;;;;;;17.71;85.82;94226.63;5001302;28;20208;-70
2022/08/02 03:21:20;;;;;;;3.60;1.37;;;;;;;17.76;84.62;94225.47;5001360;28;20196;-70
2022/08/02 03:24:05;;;;;;;2.33;1.50;;;;;;;17.82;82.93;94234.25;5001290;28;20212;-70
2022/08/02 03:26:49;;;;;;;1.40;1.27;;;;;;;17.85;83.22;94232.97;5002169;28;20200;-70
2022/08/02 03:29:33;;;;;;;1.70;1.60;;;;;;;17.85;82.80;94221.63;5000630;28;20766;-70
2022/08/02 03:32:18;;;;;;;1.87;1.77;;;;;;;17.64;88.15;94230.53;4999061;28;20223;-70
2022/08/02 03:35:05;;;;;;;2.77;1.80;;;;;;;17.58;88.76;94230.19;5003010;28;20203;-70
2022/08/02 03:37:53;;;;;;;2.53;1.80;;;;;;;17.57;89.39;94225.88;5001925;28;20779;-70
2022/08/02 03:40:37;;;;;;;3.63;1.73;;;;;;;17.44;91.34;94229.47;5001633;28;20549;-70
2022/08/02 03:43:23;;;;;;;2.03;1.83;;;;;;;17.27;92.96;94225.09;5001208;28;20215;-70
2022/08/02 03:46:08;;;;;;;2.00;1.80;;;;;;;17.18;94.25;94221.09;5003697;28;20214;-70
2022/08/02 03:48:53;;;;;;;1.83;1.73;;;;;;;17.02;96.05;94225.94;5000653;28;20224;-70
2022/08/02 03:51:38;;;;;;;3.90;1.70;;;;;;;17.07;95.14;94227.59;5000119;28;20287;-70
2022/08/02 03:54:22;;;;;;;2.77;1.80;;;;;;;17.12;92.63;94223.63;5003536;28;20204;-70
2022/08/02 03:57:06;;;;;;;2.80;2.00;;;;;;;17.10;90.87;94229.16;5002823;28;20557;-70
2022/08/02 03:59:50;;;;;;;2.57;1.70;;;;;;;17.24;89.56;94229.91;5002135;28;20727;-70
2022/08/02 04:02:35;;;;;;;2.73;1.47;;;;;;;17.40;88.27;94230.72;4999999;28;20209;-70
2022/08/02 04:05:19;;;;;;;2.70;1.70;;;;;;;17.44;87.77;94240.81;5003055;28;20211;-70
2022/08/02 04:08:04;;;;;;;2.60;1.70;;;;;;;17.54;86.08;94236.38;5002194;28;20207;-70
2022/08/02 04:13:51;;;;;;;2.57;1.50;;;;;;;17.73;83.77;94249.38;5001842;28;20279;-70
2022/08/02 04:16:43;;;;;;;1.47;1.23;;;;;;;17.82;82.85;94251.28;5003727;28;20230;-70
2022/08/02 04:19:36;;;;;;;1.93;1.20;;;;;;;17.90;82.51;94243.16;5000055;28;20204;-70
2022/08/02 04:22:33;;;;;;;1.43;1.33;;;;;;;18.08;81.89;94249.69;4999929;28;20204;-70
2022/08/02 04:25:19;;;;;;;2.20;1.50;;;;;;;17.47;88.38;94245.19;5004156;28;20675;-70
2022/08/02 04:28:05;;;;;;;1.63;1.53;;;;;;;17.30;91.41;94246.47;5014379;28;20691;-70
2022/08/02 04:30:50;;;;;;;1.67;1.50;;;;;;;17.22;92.37;94249.63;5000196;28;20732;-70
2022/08/02 04:33:35;;;;;;;1.67;1.47;;;;;;;17.23;91.52;94256.75;5002338;28;20203;-69
2022/08/02 04:36:19;;;;;;;2.33;1.50;;;;;;;17.38;92.70;94256.13;5003595;28;20200;-70
2022/08/02 04:39:04;;;;;;;2.67;1.73;;;;;;;17.47;90.81;94253.69;5002660;28;20199;-70
2022/08/02 04:41:48;;;;;;;2.40;1.40;;;;;;;17.80;89.32;94265.34;4999950;28;20208;-70
2022/08/02 04:44:32;;;;;;;3.03;1.50;;;;;;;18.30;84.63;94263.50;5000658;28;20223;-70
2022/08/02 04:47:17;;;;;;;1.53;1.13;;;;;;;18.02;85.92;94269.25;5002982;28;20203;-70
2022/08/02 04:50:02;;;;;;;2.03;1.27;;;;;;;18.19;85.85;94268.69;4998528;28;20708;-70
2022/08/02 04:52:46;;;;;;;3.33;1.53;;;;;;;18.94;81.58;94271.53;5000355;28;20208;-70
2022/08/02 04:55:30;;;;;;;1.93;1.27;;;;;;;19.28;79.72;94269.47;4999263;28;20652;-70
2022/08/02 04:58:15;;;;;;;1.40;1.30;;;;;;;18.80;80.51;94268.03;4996961;28;20574;-70
2022/08/02 05:00:59;;;;;;;2.40;0.93;;;;;;;18.51;80.53;94271.63;5000291;28;20677;-70
2022/08/02 05:03:43;;;;;;;1.57;1.10;;;;;;;18.64;80.16;94270.13;5001981;28;20204;-70
2022/08/02 05:06:27;;;;;;;5.77;1.20;;;;;;;18.99;79.19;94276.75;5000703;28;20208;-70
2022/08/02 05:09:11;;;;;;;2.20;1.10;;;;;;;19.35;77.50;94276.91;4998173;28;20298;-70
2022/08/02 05:11:55;;;;;;;1.07;1.00;;;;;;;19.60;76.67;94270.94;4997305;28;20204;-70
2022/08/02 05:14:39;;;;;;;1.33;1.20;;;;;;;19.91;74.48;94269.38;4999107;28;20203;-70
2022/08/02 05:17:24;;;;;;;1.53;1.30;;;;;;;20.17;74.11;94262.69;4996565;28;20216;-70
2022/08/02 05:20:09;;;;;;;2.20;1.00;;;;;;;20.10;73.85;94269.50;4999351;28;20203;-70
2022/08/02 05:22:53;;;;;;;1.57;1.27;;;;;;;20.10;73.68;94269.50;5000056;28;20930;-70
2022/08/02 05:25:37;;;;;;;1.10;1.00;;;;;;;20.36;72.46;94267.03;4997724;28;20290;-70
2022/08/02 05:28:22;;;;;;;1.17;1.07;;;;;;;20.47;72.33;94268.16;4999314;28;20398;-70
2022/08/02 05:31:06;;;;;;;3.10;1.10;;;;;;;20.61;70.60;94277.28;5002636;28;20246;-70
2022/08/02 05:33:51;;;;;;;2.60;1.13;;;;;;;19.78;71.36;94285.94;4998466;28;20231;-70
2022/08/02 05:36:35;;;;;;;1.90;1.10;;;;;;;19.76;70.60;94288.69;5000674;28;20207;-62
2022/08/02 05:39:18;;;;;;;1.87;0.90;;;;;;;19.95;68.64;94292.28;4997662;28;20191;-70
2022/08/02 05:42:03;;;;;;;2.97;0.90;;;;;;;20.18;67.35;94301.13;4999576;28;20218;-63
2022/08/02 05:44:47;;;;;;;1.10;1.00;;;;;;;20.06;67.39;94308.41;4999778;28;20200;-70
2022/08/02 05:47:32;;;;;;;1.23;0.90;;;;;;;19.81;68.78;94306.66;4997038;28;20303;-70
2022/08/02 05:50:17;;;;;;;1.17;1.13;;;;;;;19.67;69.79;94300.38;4996239;28;20228;-70
2022/08/02 05:53:12;;;;;;;1.20;1.10;;;;;;;19.62;70.36;94310.84;5001681;28;20208;-60
2022/08/02 05:56:15;;;;;;;1.33;1.20;;;;;;;19.34;70.83;94310.28;4997920;28;20200;-62
2022/08/02 05:59:16;;;;;;;2.47;1.13;;;;;;;19.10;73.30;94311.28;5002457;28;20235;-70
2022/08/02 06:02:03;;;;;;;1.27;1.07;;;;;;;19.49;75.06;94308.84;5001855;28;20599;-71
2022/08/02 06:04:58;;;;;;;1.57;1.10;;;;;;;19.45;74.81;94305.75;5000430;28;20197;-70
2022/08/02 06:07:43;;;;;;;2.13;1.30;;;;;;;19.88;73.76;94299.09;5000561;28;20225;-71
2022/08/02 06:10:29;;;;;;;1.20;1.10;;;;;;;20.35;71.03;94310.38;5000114;28;20219;-70
2022/08/02 06:13:17;;;;;;;1.37;1.17;;;;;;;20.68;69.31;94306.69;4999575;28;20212;-70
2022/08/02 06:16:02;;;;;;;1.00;1.00;;;;;;;21.12;66.60;94308.44;4999202;28;20769;-71
2022/08/02 06:18:47;;;;;;;1.50;1.10;;;;;;;21.25;65.97;94310.38;5000798;28;20715;-71
2022/08/02 06:21:32;;;;;;;3.13;1.00;;;;;;;21.65;64.83;94316.13;5001824;28;20199;-71
2022/08/02 06:24:20;;;;;;;0.90;0.90;;;;;;;21.57;64.78;94321.53;5002339;28;20207;-70
2022/08/02 06:27:05;;;;;;;1.90;0.90;;;;;;;21.28;62.67;94309.09;4998187;28;20202;-70
2022/08/02 06:29:50;;;;;;;0.90;0.90;;;;;;;21.16;64.84;94311.47;5000508;28;20247;-71
2022/08/02 06:32:34;;;;;;;1.73;0.97;;;;;;;21.33;65.07;94316.41;4999132;28;20199;-70
2022/08/02 06:35:19;;;;;;;1.08;1.00;;;;;;;21.79;63.98;94314.50;5001318;28;20200;-70
2022/08/02 06:38:04;;;;;;;1.00;0.90;;;;;;;21.33;63.42;94310.69;5001885;28;20294;-70
2022/08/02 06:40:59;;;;;;;1.93;0.80;;;;;;;21.60;62.75;94309.53;5000510;28;20204;-70
2022/08/02 06:43:54;;;;;;;1.20;1.10;;;;;;;21.55;62.21;94312.88;4998082;28;20204;-71
2022/08/02 06:46:38;;;;;;;0.90;0.90;;;;;;;22.18;61.33;94325.16;5002128;28;20204;-70
2022/08/02 06:49:22;;;;;;;1.20;1.10;;;;;;;21.88;61.94;94321.22;5000856;28;20688;-67
2022/08/02 06:52:06;;;;;;;1.10;1.00;;;;;;;21.42;63.44;94319.56;4998677;28;20196;-70
2022/08/02 06:54:51;;;;;;;0.82;0.82;;;;;;;21.45;62.47;94315.38;5002244;28;20283;-70
2022/08/02 06:57:35;;;;;;;3.28;1.00;;;;;;;21.47;62.74;94312.59;4999870;28;20692;-70
2022/08/02 07:00:19;;;;;;;1.13;1.00;;;;;;;22.07;61.89;94309.09;5001715;28;20196;-71
2022/08/02 07:03:04;;;;;;;1.17;1.08;;;;;;;22.51;60.41;94314.84;5000046;28;20204;-70
2022/08/02 07:05:48;;;;;;;3.17;1.00;;;;;;;22.65;61.28;94317.44;5001541;28;20291;-70
2022/08/02 07:08:34;;;;;;;1.10;1.10;;;;;;;22.65;60.35;94318.13;5000141;28;20212;-70
2022/08/02 07:11:19;;;;;;;0.80;0.80;;;;;;;22.63;59.16;94312.38;5001159;28;20273;-70
2022/08/02 07:14:03;;;;;;;0.95;0.95;;;;;;;23.38;57.80;94317.59;5004871;28;20674;-71
2022/08/02 07:16:47;;;;;;;1.02;1.00;;;;;;;22.16;58.82;94324.34;5003171;28;20228;-64
2022/08/02 07:19:32;;;;;;;1.05;1.00;;;;;;;23.09;58.81;94326.69;5005776;28;20215;-70
2022/08/02 07:22:18;;;;;;;0.80;0.80;;;;;;;22.58;58.97;94325.06;5003707;28;20207;-68
2022/08/02 07:25:02;;;;;;;1.30;1.20;;;;;;;22.35;59.99;94317.13;5004119;28;20207;-70
2022/08/02 07:27:47;;;;;;;1.48;1.27;;;;;;;22.82;59.77;94308.75;5002223;28;20204;-70
2022/08/02 07:30:31;;;;;;;1.92;1.17;;;;;;;23.36;58.26;94314.66;5001984;28;21190;-71
2022/08/02 07:33:16;;;;;;;1.48;1.27;;;;;;;23.16;58.06;94316.91;5004885;28;20200;-70
2022/08/02 07:36:02;;;;;;;1.35;1.20;;;;;;;23.86;57.49;94309.69;5002955;28;20578;-70
2022/08/02 07:38:46;;;;;;;2.30;1.58;;;;;;;22.99;57.73;94310.69;5003723;28;20200;-61
2022/08/02 07:41:30;;;;;;;1.20;1.00;;;;;;;23.14;59.29;94309.03;5001389;28;20254;-71
2022/08/02 07:44:14;;;;;;;2.35;1.20;;;;;;;23.13;58.20;94316.13;5002649;28;20203;-70
2022/08/02 07:47:00;;;;;;;5.53;1.15;;;;;;;23.02;57.04;94307.91;5001310;28;20690;-71
2022/08/02 07:49:44;;;;;;;1.75;0.90;;;;;;;23.68;55.58;94301.31;5003310;28;20227;-70
2022/08/02 07:52:28;;;;;;;0.88;0.88;;;;;;;23.41;57.90;94313.38;4998744;28;20702;-70
2022/08/02 07:55:14;;;;;;;0.90;0.80;;;;;;;23.42;57.53;94308.38;5003840;28;20204;-70
2022/08/02 07:57:59;;;;;;;1.38;1.13;;;;;;;23.56;56.99;94312.44;5000191;28;20200;-71
2022/08/02 08:00:43;;;;;;;2.03;1.33;;;;;;;23.94;55.22;94326.38;4997636;28;20678;-70
2022/08/02 08:03:28;;;;;;;2.45;0.85;;;;;;;23.67;56.75;94310.56;5004224;28;20200;-70
2022/08/02 08:06:12;;;;;;;1.30;0.98;;;;;;;23.54;57.08;94314.50;4998190;28;20200;-69
2022/08/02 08:08:57;;;;;;;0.95;0.95;;;;;;;24.02;55.74;94315.13;5000626;28;20299;-70
2022/08/02 08:11:42;;;;;;;1.33;1.00;;;;;;;24.56;55.29;94307.97;4998590;28;20747;-70
2022/08/02 08:14:26;;;;;;;1.30;1.20;;;;;;;24.28;56.10;94313.00;4998647;28;20235;-70
2022/08/02 08:17:10;;;;;;;1.23;1.13;;;;;;;24.74;56.29;94306.97;5003249;28;20223;-70
2022/08/02 08:19:54;;;;;;;1.02;1.02;;;;;;;25.34;54.84;94314.16;4999134;28;20200;-70
2022/08/02 08:22:39;;;;;;;1.33;1.20;;;;;;;24.02;55.03;94312.25;4998989;28;20204;-70
2022/08/02 08:25:23;;;;;;;1.25;1.15;;;;;;;25.25;55.93;94309.63;5002510;28;20220;-70
2022/08/02 08:28:07;;;;;;;1.23;0.90;;;;;;;25.11;55.41;94312.19;5000712;28;20223;-70
2022/08/02 08:30:51;;;;;;;0.90;0.90;;;;;;;24.66;55.40;94312.50;5000976;28;20671;-70
2022/08/02 08:33:36;;;;;;;1.45;1.15;;;;;;;25.17;54.04;94308.72;4998357;28;20240;-70
2022/08/02 08:36:20;;;;;;;1.20;1.05;;;;;;;24.92;55.03;94311.03;4999019;28;20208;-70
2022/08/02 08:39:04;;;;;;;1.13;1.10;;;;;;;24.81;53.35;94308.59;5002696;28;20672;-70
2022/08/02 08:41:48;;;;;;;0.90;0.80;;;;;;;25.37;54.07;94307.03;4999643;28;20215;-70
2022/08/02 08:44:36;;;;;;;1.27;1.05;;;;;;;24.65;54.80;94297.44;4999560;28;20207;-70
2022/08/02 08:47:22;;;;;;;1.02;1.00;;;;;;;24.29;54.81;94297.28;4997622;28;20227;-70
2022/08/02 08:50:10;;;;;;;1.10;1.00;;;;;;;24.48;54.83;94310.66;5000748;28;20227;-70
2022/08/02 08:53:06;;;;;;;2.15;1.02;;;;;;;24.24;56.47;94312.16;5000368;28;20228;-62
2022/08/02 08:55:52;;;;;;;0.98;0.93;;;;;;;23.47;59.15;94301.41;4998134;28;20299;-71
2022/08/02 08:58:37;;;;;;;1.85;1.10;;;;;;;23.70;57.23;94298.50;5000108;28;20208;-70
2022/08/02 09:01:22;;;;;;;1.33;1.20;;;;;;;22.93;59.65;94301.94;5000135;28;20206;-69
2022/08/02 09:04:08;;;;;;;1.35;1.25;;;;;;;23.32;58.70;94294.53;4998501;28;20200;-71
2022/08/02 09:06:52;;;;;;;1.20;1.10;;;;;;;23.82;56.58;94303.13;4998951;28;20255;-70
2022/08/02 09:09:36;;;;;;;3.20;1.35;;;;;;;25.12;52.70;94305.03;4997727;28;20236;-60
2022/08/02 09:12:21;;;;;;;1.25;1.15;;;;;;;25.04;53.18;94307.72;4999358;28;20303;-66
2022/08/02 09:15:05;;;;;;;1.92;1.00;;;;;;;25.08;54.76;94307.81;4997737;28;20209;-70
2022/08/02 09:17:50;;;;;;;1.17;1.08;;;;;;;25.17;51.87;94315.19;4999041;28;20200;-70
2022/08/02 09:20:59;;;;;;;2.05;1.20;;;;;;;25.14;52.67;94307.22;5000284;28;20223;-70
2022/08/02 09:23:48;;;;;;;1.17;1.08;;;;;;;24.51;53.60;94305.69;5000042;28;20199;-70
2022/08/02 09:26:32;;;;;;;2.50;0.98;;;;;;;24.63;54.53;94305.97;5000388;28;20610;-70
2022/08/02 09:29:18;;;;;;;1.33;0.88;;;;;;;25.10;52.19;94305.00;4996065;28;20224;-70
2022/08/02 09:32:03;;;;;;;1.52;1.00;;;;;;;25.87;52.69;94311.66;4999739;28;20216;-70
2022/08/02 09:34:52;;;;;;;1.25;1.15;;;;;;;25.88;51.38;94308.13;4998564;28;20219;-70
2022/08/02 09:37:36;;;;;;;2.45;1.17;;;;;;;26.63;50.13;94323.19;4999445;28;20200;-71
2022/08/02 09:40:34;;;;;;;2.03;1.00;;;;;;;26.57;49.20;94312.31;4999799;28;20200;-64
2022/08/02 09:43:19;;;;;;;1.02;0.93;;;;;;;25.42;50.43;94313.59;4997589;28;20298;-70
2022/08/02 09:46:15;;;;;;;3.20;1.00;;;;;;;26.77;48.48;94309.03;5009154;28;20208;-70
2022/08/02 09:49:02;;;;;;;1.10;1.00;;;;;;;27.12;47.70;94304.59;4999303;28;20311;-70
2022/08/02 09:51:52;;;;;;;1.23;1.02;;;;;;;26.68;48.28;94308.19;4999860;28;20270;-70
2022/08/02 09:54:38;;;;;;;1.10;1.00;;;;;;;26.91;47.69;94306.44;4999653;28;20200;-71
2022/08/02 09:57:27;;;;;;;1.30;1.13;;;;;;;26.62;48.74;94310.22;5000894;28;20218;-70
2022/08/02 10:00:11;;;;;;;1.58;1.20;;;;;;;25.34;50.89;94310.56;4999510;28;20200;-70
2022/08/02 10:03:10;;;;;;;1.60;1.02;;;;;;;25.28;53.63;94310.41;4997325;28;20205;-71
2022/08/02 10:06:00;;;;;;;5.03;1.20;;;;;;;26.72;51.42;94314.00;4998812;28;20200;-70
2022/08/02 10:08:44;;;;;;;0.82;0.82;;;;;;;26.50;48.85;94305.72;4999932;28;20262;-71
2022/08/02 10:11:29;;;;;;;3.13;1.15;;;;;;;26.31;51.13;94306.06;4999229;28;20295;-70
2022/08/02 10:14:13;;;;;;;0.80;0.80;;;;;;;26.90;47.21;94302.84;4997259;28;20673;-70
2022/08/02 10:16:59;;;;;;;3.10;0.95;;;;;;;26.39;48.96;94306.22;4997232;28;20224;-70
2022/08/02 10:19:44;;;;;;;1.25;1.15;;;;;;;25.17;49.92;94309.47;4996010;28;20200;-70
2022/08/02 10:22:29;;;;;;;2.60;0.80;;;;;;;25.63;51.52;94303.28;4999081;28;20283;-70
2022/08/02 10:25:14;;;;;;;1.42;1.10;;;;;;;24.90;52.75;94304.53;4998133;28;20207;-70
2022/08/02 10:27:59;;;;;;;0.73;0.73;;;;;;;24.06;53.40;94303.78;4999215;28;20199;-70
2022/08/02 10:30:47;;;;;;;2.92;0.95;;;;;;;25.80;50.02;94296.47;4997745;28;20243;-71
2022/08/02 10:33:35;;;;;;;1.05;1.00;;;;;;;26.31;48.99;94301.06;4997435;28;20202;-70
2022/08/02 10:36:22;;;;;;;2.15;0.93;;;;;;;26.68;49.27;94308.19;4996340;28;20575;-71
2022/08/02 10:39:07;;;;;;;1.88;1.17;;;;;;;26.75;46.34;94301.09;5000301;28;20208;-69
2022/08/02 10:41:52;;;;;;;0.80;0.80;;;;;;;26.52;45.53;94297.13;4996133;28;20575;-67
2022/08/02 10:44:36;;;;;;;1.45;0.82;;;;;;;26.25;48.02;94294.47;4999362;28;20237;-71
2022/08/02 10:47:24;;;;;;;1.00;0.90;;;;;;;26.54;48.79;94288.53;4997677;28;20215;-71
2022/08/02 10:50:10;;;;;;;1.30;0.80;;;;;;;26.70;45.13;94287.34;5003079;28;20220;-67
2022/08/02 10:53:27;;;;;;;3.13;0.88;;;;;;;27.71;43.45;94283.84;4999649;28;20287;-70
2022/08/02 10:56:12;;;;;;;1.17;0.90;;;;;;;26.67;43.56;94289.47;5001954;28;20200;-70
2022/08/02 10:59:25;;;;;;;1.60;0.80;;;;;;;26.23;43.01;94280.78;5003923;28;20192;-69
2022/08/02 11:02:10;;;;;;;0.93;0.70;;;;;;;25.90;43.14;94279.44;5000037;28;20208;-70
2022/08/02 11:04:54;;;;;;;3.08;0.90;;;;;;;26.79;40.93;94272.41;5002822;28;20280;-70
2022/08/02 11:07:42;;;;;;;1.08;0.68;;;;;;;26.97;41.67;94275.59;5001007;28;20837;-68
2022/08/02 11:10:31;;;;;;;1.27;0.60;;;;;;;26.67;42.22;94277.22;5001607;28;20266;-71
2022/08/02 11:13:18;;;;;;;0.88;0.75;;;;;;;27.75;41.49;94266.63;5000282;28;20219;-60
2022/08/02 11:16:04;;;;;;;0.70;0.68;;;;;;;27.33;42.23;94268.94;4999964;28;20224;-67
2022/08/02 11:18:50;;;;;;;0.60;0.50;;;;;;;27.80;39.42;94261.63;5001726;28;20275;-71
2022/08/02 11:21:35;;;;;;;2.88;0.70;;;;;;;27.31;41.33;94257.38;4998086;28;20259;-70
2022/08/02 11:24:27;;;;;;;3.33;0.60;;;;;;;27.56;41.51;94250.53;4999450;28;20203;-70
2022/08/02 11:27:20;;;;;;;5.25;0.95;;;;;;;26.66;42.69;94253.53;5002379;28;20218;-70
2022/08/02 11:30:12;;;;;;;3.20;0.77;;;;;;;27.72;42.68;94256.50;5003429;23;20296;-59
2022/08/02 11:32:57;;;;;;;0.52;0.50;;;;;;;28.12;42.87;94250.47;4985826;28;20290;-59
2022/08/02 11:35:42;;;;;;;1.08;0.85;;;;;;;27.81;41.14;94256.59;4988637;28;20215;-57
2022/08/02 11:38:26;;;;;;;0.65;0.65;;;;;;;27.76;40.88;94245.03;4990617;28;20261;-58
2022/08/02 11:41:21;;;;;;;0.80;0.80;;;;;;;27.78;41.46;94252.97;4995005;28;20204;-59
2022/08/02 11:44:05;;;;;;;0.80;0.80;;;;;;;28.09;41.19;94256.91;4987234;28;20838;-59
2022/08/02 11:46:53;;;;;;;0.93;0.77;;;;;;;27.10;44.10;94255.63;4991232;28;20200;-57
2022/08/02 11:49:37;;;;;;;0.63;0.63;;;;;;;27.46;42.01;94259.03;4990591;28;20216;-72
2022/08/02 11:52:32;;;;;;;1.83;0.70;;;;;;;27.33;42.21;94260.31;4991369;28;20204;-59
2022/08/02 11:55:16;;;;;;;0.65;0.65;;;;;;;28.24;40.52;94249.91;4989872;28;20212;-57
2022/08/02 11:58:04;;;;;;;2.25;0.80;;;;;;;28.08;41.33;94255.47;4988559;28;20204;-58
2022/08/02 12:00:48;;;;;;;2.63;0.85;;;;;;;28.75;40.42;94262.63;4986459;28;20318;-57
2022/08/02 12:03:34;;;;;;;2.17;0.60;;;;;;;28.95;40.66;94264.94;4993256;28;20306;-59
2022/08/02 12:06:19;;;;;;;1.23;1.13;;;;;;;28.00;40.33;94261.88;4989641;28;20212;-58
2022/08/02 12:09:12;;;;;;;0.63;0.63;;;;;;;27.68;40.62;94262.22;4987266;28;20783;-58
2022/08/02 12:11:56;;;;;;;1.42;0.80;;;;;;;27.51;42.48;94260.56;4986859;28;20210;-57
2022/08/02 12:14:45;;;;;;;1.25;0.70;;;;;;;28.24;40.41;94258.53;4989243;28;20210;-61
2022/08/02 12:20:36;;;;;;;0.80;0.80;;;;;;;28.41;40.92;94263.03;4988693;28;20207;-58
2022/08/02 12:23:20;;;;;;;1.63;1.10;;;;;;;27.84;42.30;94258.78;4988727;28;20381;-66
2022/08/02 12:26:08;;;;;;;1.00;0.80;;;;;;;28.33;43.11;94260.06;4988622;28;20208;-59
2022/08/02 12:28:56;;;;;;;0.90;0.80;;;;;;;28.58;40.04;94258.13;4987346;28;20373;-58
2022/08/02 12:31:48;;;;;;;0.77;0.77;;;;;;;28.55;40.99;94254.50;4984555;28;20208;-58
2022/08/02 12:34:34;;;;;;;2.80;0.80;;;;;;;28.53;40.68;94251.59;4984651;28;20205;-59
2022/08/02 12:37:24;;;;;;;0.70;0.70;;;;;;;28.33;40.75;94254.28;4988103;28;20207;-59
2022/08/02 12:40:18;;;;;;;0.60;0.60;;;;;;;28.22;40.49;94249.88;4986813;28;20203;-60
2022/08/02 12:43:05;;;;;;;3.70;0.88;;;;;;;27.85;41.45;94248.00;4986104;28;20250;-57
2022/08/02 12:45:53;;;;;;;1.30;0.68;;;;;;;27.99;42.03;94248.16;4988090;28;20720;-57
2022/08/02 12:48:40;;;;;;;1.10;0.88;;;;;;;28.81;39.95;94250.44;4987349;28;20203;-59
2022/08/02 12:51:36;;;;;;;1.27;0.80;;;;;;;28.36;42.35;94247.13;4986978;28;20348;-57
2022/08/02 12:54:38;;;;;;;1.05;0.90;;;;;;;27.77;44.99;94234.25;4988431;28;20208;-59
2022/08/02 12:57:23;;;;;;;0.68;0.68;;;;;;;28.40;41.98;94229.84;4989392;28;20325;-58
2022/08/02 13:00:08;;;;;;;1.00;0.70;;;;;;;28.86;41.85;94228.81;4987219;28;20255;-59
2022/08/02 13:02:52;;;;;;;0.70;0.70;;;;;;;29.04;39.66;94220.28;4984535;28;20206;-59
2022/08/02 13:05:37;;;;;;;1.38;0.77;;;;;;;29.22;39.01;94222.56;4990294;28;20200;-58
2022/08/02 13:08:21;;;;;;;2.97;1.00;;;;;;;29.34;38.53;94217.59;4985761;28;22034;-58
2022/08/02 13:11:05;;;;;;;0.60;0.60;;;;;;;29.47;38.50;94223.44;4984979;28;20731;-60